1985 NELSON (1985227N16149)


On this page: IBTrACS data - Map and Plots - Positions - Intensities - Original source data

Summary

Start Aug 15
End Aug 25
Basin WP
LMI 100 kt
Sources jtwc_wp
tokyo
cma
hko
td9636
In WMO? Yes
Previous storm 1985 MAMIE (WP)
Previous in basin 1985 MAMIE (WP)
Concurrent storms 1985 KIT (WP)
1985 LEE (WP)
1985 MISSING (WP)
1985 CLAUDETTE (NA)
1985 DANNY (NA)
1985 MAMIE (WP)
1985 NELSON (WP)
1985 ODESSA (WP)
1985 MISSING (WP)
1985 NORA (EP)
1985 ONE-C (EP)
1985 OLAF (EP)
1985 PAT (WP)
1985 RUBY (WP)
Next in basin 1985 ODESSA (WP)
Next storm 1985 ODESSA (WP)

top of page IBTrACS Data: File Access

top of page HURSAT Data: File Access

Image of storm

top of page Plots:

Map of storm track will not appear if FTP is down
Time series of cyclone Maximum Sustained Wind will not appear if FTP is down
Time series of cyclone Minimum Central Pressure will not appear if FTP is down

top of page Track Data:Position

jtwc_wp tokyo cma hko td9636
Date Lat Lon Lat Lon Lat Lon Lat Lon Lat Lon
1985-08-15 00:00:00 16.1 148.9
1985-08-15 06:00:00 16.2 147.9
1985-08-15 12:00:00 16.4 147.1
1985-08-15 18:00:00 16.6 146.4
1985-08-16 00:00:00 14.5 142.0 15.0 141.0 16.7 145.7
1985-08-16 06:00:00 15.3 141.8 15.6 141.2 16.7 144.7
1985-08-16 12:00:00 17.3 143.6 16.2 141.7 16.2 141.5 16.9 143.6
1985-08-16 18:00:00 17.9 143.2 17.0 141.6 17.0 141.5 17.4 142.7
1985-08-17 00:00:00 18.6 142.6 17.8 141.5 17.8 141.5 18.1 142.1
1985-08-17 06:00:00 19.2 142.1 18.6 141.4 19.1 141.5 18.8 141.7
1985-08-17 12:00:00 19.8 141.5 19.3 141.2 19.8 141.2 19.6 141.4
1985-08-17 18:00:00 20.4 140.9 20.2 140.9 20.5 140.5 20.4 140.6 20.4 140.7
1985-08-18 00:00:00 21.2 140.0 21.0 140.5 21.0 139.7 21.1 140.1 21.2 140.0
1985-08-18 06:00:00 21.8 139.4 21.7 139.5 21.8 139.5 21.7 139.6 21.8 139.4
1985-08-18 12:00:00 22.3 138.7 22.2 138.5 22.4 138.7 22.4 138.7 22.3 138.7
1985-08-18 18:00:00 22.5 137.7 22.6 137.4 22.7 137.7 22.7 137.6 22.6 137.6
1985-08-19 00:00:00 22.7 136.5 22.7 136.5 22.7 136.6 22.8 136.6 22.7 136.5
1985-08-19 06:00:00 22.9 135.8 22.9 135.7 22.9 136.0 22.9 135.8 22.9 135.6
1985-08-19 12:00:00 23.0 134.8 23.0 134.9 23.1 135.0 23.0 134.8 23.0 134.8
1985-08-19 18:00:00 23.0 133.8 23.1 134.0 23.1 133.7 23.0 134.0 23.1 133.9
1985-08-20 00:00:00 23.1 133.1 23.1 133.0 23.1 133.1 23.1 133.1 23.1 133.1
1985-08-20 06:00:00 23.1 132.3 23.1 132.2 23.3 132.3 23.1 132.4 23.1 132.3
1985-08-20 12:00:00 23.1 131.6 23.1 131.6 23.2 131.5 23.2 131.6 23.1 131.6
1985-08-20 18:00:00 23.3 131.0 23.1 131.1 23.3 130.7 23.4 130.9 23.4 130.8
1985-08-21 00:00:00 23.8 130.0 23.6 130.3 23.8 130.1 23.8 130.2 23.8 130.0
jtwc_wp tokyo cma hko td9636
1985-08-21 06:00:00 24.0 129.0 24.0 129.1 24.1 129.1 24.1 129.0 24.0 129.1
1985-08-21 12:00:00 24.1 128.0 24.1 128.1 24.1 128.0 24.2 128.1 24.1 128.0
1985-08-21 18:00:00 24.3 126.7 24.2 126.8 24.2 126.8 24.3 126.9 24.3 126.8
1985-08-22 00:00:00 24.5 125.7 24.5 125.8 24.6 125.9 24.4 125.9 24.5 125.7
1985-08-22 06:00:00 24.6 124.7 24.7 124.7 24.8 124.8 24.7 124.7 24.6 124.7
1985-08-22 12:00:00 24.7 123.8 24.8 123.9 24.9 123.9 24.9 123.8 24.7 123.8
1985-08-22 18:00:00 25.2 122.8 25.3 122.9 25.4 122.9 25.3 122.7 25.1 122.8
1985-08-23 00:00:00 25.5 121.8 25.5 121.5 25.4 121.9 25.5 121.7 25.5 121.8
1985-08-23 06:00:00 25.6 120.7 25.7 120.7 25.7 120.8 25.7 120.7 25.6 120.8
1985-08-23 12:00:00 25.6 119.7 25.7 119.9 25.8 119.9 25.7 119.8 25.6 119.7
1985-08-23 18:00:00 25.5 118.7 25.4 118.7 25.5 118.7 25.6 118.6 25.6 118.6
1985-08-24 00:00:00 25.7 117.6 25.4 117.5 25.2 117.9 25.5 117.8 25.7 117.6
1985-08-24 06:00:00 26.1 116.7 25.4 117.5 25.3 116.9 25.3 117.0
1985-08-24 12:00:00 26.5 116.0 26.0 116.1
1985-08-24 18:00:00 26.5 115.0 26.2 115.3
1985-08-25 00:00:00 26.0 115.0 26.2 114.9
1985-08-25 06:00:00 26.0 114.0 26.4 114.1
1985-08-25 12:00:00 25.5 113.0 26.3 113.2
1985-08-25 18:00:00 26.0 112.0 25.9 112.5

top of pageTrack Data:Intensity

jtwc_wp tokyo cma hko td9636
Date Wind Pres Wind Pres Wind Pres Wind Pres Wind Pres
1985-08-15 00:00:00
1985-08-15 06:00:00
1985-08-15 12:00:00
1985-08-15 18:00:00
1985-08-16 00:00:00 1004. 19. 1004.
1985-08-16 06:00:00 1004. 19. 1003.
1985-08-16 12:00:00 15. 1004. 23. 1002. 20.
1985-08-16 18:00:00 15. 1002. 23. 1000. 20.
1985-08-17 00:00:00 20. 1000. 23. 998. 20.
1985-08-17 06:00:00 20. 1000. 23. 998. 20.
1985-08-17 12:00:00 25. 1000. 23. 998. 25.
1985-08-17 18:00:00 30. 40. 994. 29. 995. 30. 991. 25.
1985-08-18 00:00:00 40. 45. 990. 39. 990. 35. 990. 40.
1985-08-18 06:00:00 45. 45. 990. 49. 990. 40. 990. 40.
1985-08-18 12:00:00 55. 55. 985. 58. 983. 45. 983. 55.
1985-08-18 18:00:00 60. 60. 980. 58. 982. 50. 982. 55.
1985-08-19 00:00:00 65. 60. 980. 58. 980. 55. 980. 65.
1985-08-19 06:00:00 70. 60. 975. 58. 980. 55. 980. 65.
1985-08-19 12:00:00 65. 60. 975. 58. 980. 55. 980. 65.
1985-08-19 18:00:00 70. 60. 975. 58. 978. 55. 975. 65.
1985-08-20 00:00:00 70. 70. 970. 68. 971. 60. 970. 70.
1985-08-20 06:00:00 75. 70. 970. 68. 970. 60. 970. 70.
1985-08-20 12:00:00 75. 70. 970. 68. 970. 60. 970. 75.
1985-08-20 18:00:00 80. 70. 970. 68. 970. 65. 970. 75.
1985-08-21 00:00:00 80. 70. 970. 68. 968. 70. 970. 80.
jtwc_wp tokyo cma hko td9636
1985-08-21 06:00:00 90. 70. 970. 78. 966. 70. 965. 80.
1985-08-21 12:00:00 90. 75. 965. 78. 965. 70. 965. 90.
1985-08-21 18:00:00 95. 75. 965. 78. 964. 75. 965. 90.
1985-08-22 00:00:00 90. 80. 960. 78. 963. 75. 960. 90.
1985-08-22 06:00:00 85. 70. 965. 78. 960. 80. 960. 90.
1985-08-22 12:00:00 85. 70. 960. 78. 960. 85. 960. 85.
1985-08-22 18:00:00 80. 75. 955. 87. 955. 90. 955. 85.
1985-08-23 00:00:00 80. 80. 950. 97. 955. 100. 950. 80.
1985-08-23 06:00:00 70. 75. 955. 97. 955. 100. 955. 80.
1985-08-23 12:00:00 70. 75. 960. 87. 965. 90. 955. 70.
1985-08-23 18:00:00 50. 60. 975. 58. 975. 70. 965. 70.
1985-08-24 00:00:00 35. 40. 992. 39. 990. 40. 985. 35.
1985-08-24 06:00:00 30. 996. 19. 995. 30. 995.
1985-08-24 12:00:00 996. 19. 997.
1985-08-24 18:00:00 998. 19. 997.
1985-08-25 00:00:00 998. 19. 997.
1985-08-25 06:00:00 998. 19. 997.
1985-08-25 12:00:00 998. 19. 997.
1985-08-25 18:00:00 998. 19. 997.

top of page Links to source data

Source Source file Format
jtwc_wp bwp111985.txt ATCF
tokyo bst_all.txt:Line=33860:NELSON:8511 JMA text table
cma CH1985BST.txt:Storm=16:Nelson CMA text table
hko tc-besttrack-data-current.txt:Line=17234:NELSON HKO Text table
td9636 cons_worldwide_trop_cyclone_18710101-19891231-003:Line=29687 TD 9636